Time;durP1;ratioP1;P1;durP2;ratioP2;P2;SDS_P1;SDS_P2;PMS_P1;PMS_P2;Temp;Humidity;BMP_temperature;BMP_pressure;BME280_temperature;BME280_humidity;BME280_pressure;Samples;Min_cycle;Max_cycle;Signal;HPM_P1;HPM_P2
2022/07/04 00:02:03;;;;;;;3.72;2.55;;;18.40;99.90;;;;;;5076706;28;20042;-67
2022/07/04 00:04:29;;;;;;;4.35;2.50;;;18.40;99.90;;;;;;5069342;28;20048;-68
2022/07/04 00:06:56;;;;;;;4.10;2.65;;;18.30;99.90;;;;;;5077589;28;20630;-67
2022/07/04 00:09:23;;;;;;;4.57;2.50;;;18.30;99.90;;;;;;5077299;28;20037;-67
2022/07/04 00:11:50;;;;;;;3.65;2.53;;;18.30;99.90;;;;;;5068851;28;20041;-67
2022/07/04 00:14:17;;;;;;;5.85;2.70;;;18.30;99.90;;;;;;5077676;28;20124;-67
2022/07/04 00:16:44;;;;;;;2.88;2.42;;;18.30;99.90;;;;;;5077391;28;20044;-67
2022/07/04 00:19:11;;;;;;;5.68;2.40;;;18.30;99.90;;;;;;5077230;28;20064;-67
2022/07/04 00:21:38;;;;;;;2.70;2.50;;;18.40;99.90;;;;;;5068702;28;20065;-67
2022/07/04 00:24:05;;;;;;;4.20;2.60;;;18.40;99.90;;;;;;5057653;28;20049;-67
2022/07/04 00:26:31;;;;;;;;;;;18.50;99.90;;;;;;5057952;28;20495;-67
2022/07/04 00:28:58;;;;;;;6.88;2.05;;;18.50;99.90;;;;;;5054794;28;20377;-67
2022/07/04 00:31:25;;;;;;;2.83;2.33;;;18.50;99.90;;;;;;5071888;28;20052;-67
2022/07/04 00:33:52;;;;;;;3.72;2.30;;;18.60;99.90;;;;;;5077470;28;20040;-67
2022/07/04 00:36:19;;;;;;;3.53;2.33;;;18.60;99.90;;;;;;5074958;28;20039;-67
2022/07/04 00:38:46;;;;;;;3.47;2.72;;;18.70;99.90;;;;;;5069040;28;20041;-67
2022/07/04 00:41:13;;;;;;;4.57;2.88;;;18.70;99.90;;;;;;5077133;28;20036;-67
2022/07/04 00:43:40;;;;;;;;;;;18.80;99.90;;;;;;5077761;28;20160;-67
2022/07/04 00:46:27;;;;;;;2.92;2.38;;;18.70;99.90;;;;;;5076700;28;20317;-67
2022/07/04 00:48:54;;;;;;;4.20;2.55;;;18.60;99.90;;;;;;5069013;28;20048;-67
2022/07/04 00:51:21;;;;;;;2.72;2.50;;;18.50;99.90;;;;;;5076697;28;20050;-67
2022/07/04 00:53:50;;;;;;;6.43;2.58;;;18.30;99.90;;;;;;5077405;28;20057;-67
2022/07/04 00:56:17;;;;;;;3.65;3.28;;;18.20;99.90;;;;;;5068408;28;20040;-67
2022/07/04 00:58:44;;;;;;;;;;;18.10;99.90;;;;;;5071831;28;20094;-67
2022/07/04 01:01:11;;;;;;;3.55;2.35;;;18.10;99.90;;;;;;5073951;28;19921;-66
2022/07/04 01:03:38;;;;;;;3.75;2.20;;;18.10;99.90;;;;;;5073856;28;20039;-66
2022/07/04 01:06:08;;;;;;;6.18;2.28;;;18.20;99.90;;;;;;5062272;28;20045;-67
2022/07/04 01:08:40;;;;;;;4.38;2.13;;;18.30;99.90;;;;;;5054143;28;20143;-67
2022/07/04 01:11:08;;;;;;;2.45;2.25;;;18.40;99.90;;;;;;5053732;28;20425;-67
2022/07/04 01:13:36;;;;;;;3.80;2.38;;;18.40;99.90;;;;;;5065910;28;20045;-66
2022/07/04 01:16:04;;;;;;;6.80;2.50;;;18.50;99.90;;;;;;5065494;28;20048;-66
2022/07/04 01:18:31;;;;;;;12.88;3.83;;;18.60;99.90;;;;;;5073954;28;20047;-65
2022/07/04 01:20:58;;;;;;;8.50;4.80;;;18.60;99.90;;;;;;5073492;28;20062;-65
2022/07/04 01:23:26;;;;;;;13.15;4.70;;;18.40;99.90;;;;;;5063584;28;20115;-65
2022/07/04 01:25:53;;;;;;;8.95;4.70;;;18.30;99.90;;;;;;5072188;28;20060;-66
2022/07/04 01:28:21;;;;;;;8.15;4.40;;;18.20;99.90;;;;;;5073808;28;20052;-66
2022/07/04 01:30:48;;;;;;;7.63;4.68;;;18.10;99.90;;;;;;5072686;28;20051;-66
2022/07/04 01:33:17;;;;;;;5.82;4.25;;;18.10;99.90;;;;;;5065282;28;20041;-66
2022/07/04 01:35:44;;;;;;;7.07;4.30;;;18.10;99.90;;;;;;5073360;28;20455;-66
2022/07/04 01:38:11;;;;;;;6.82;4.55;;;18.10;99.90;;;;;;5073466;28;20121;-66
2022/07/04 01:40:38;;;;;;;8.45;4.28;;;18.00;99.90;;;;;;5072575;28;20047;-66
2022/07/04 01:43:05;;;;;;;;;;;18.00;99.90;;;;;;5065991;28;20044;-66
2022/07/04 01:45:34;;;;;;;10.10;4.53;;;17.90;99.90;;;;;;5073396;28;20327;-67
2022/07/04 01:48:01;;;;;;;6.60;4.25;;;18.00;99.90;;;;;;5069519;28;20041;-66
2022/07/04 01:50:28;;;;;;;5.28;4.03;;;18.00;99.90;;;;;;5067814;28;20048;-66
2022/07/04 01:52:54;;;;;;;7.13;4.75;;;18.00;99.90;;;;;;5073394;28;20068;-66
2022/07/04 01:55:22;;;;;;;7.30;3.95;;;18.00;99.90;;;;;;5073179;28;20040;-66
2022/07/04 01:57:49;;;;;;;8.85;4.25;;;18.10;99.90;;;;;;5064265;28;20049;-66
2022/07/04 02:03:01;;;;;;;6.53;4.28;;;18.20;99.90;;;;;;5073071;28;20742;-67
2022/07/04 02:05:28;;;;;;;9.77;4.70;;;18.20;99.90;;;;;;5072406;28;20032;-66
2022/07/04 02:07:54;;;;;;;5.00;3.90;;;18.20;99.90;;;;;;5063309;28;20041;-66
2022/07/04 02:10:22;;;;;;;7.35;3.85;;;18.20;99.90;;;;;;5072538;28;20048;-66
2022/07/04 02:13:01;;;;;;;;;;;18.20;99.90;;;;;;5072695;28;20040;-66
2022/07/04 02:15:33;;;;;;;11.90;4.50;;;18.20;99.90;;;;;;5064424;28;19926;-66
2022/07/04 02:18:06;;;;;;;7.25;4.45;;;18.10;99.90;;;;;;5072925;28;20052;-66
2022/07/04 02:20:34;;;;;;;8.45;4.20;;;18.10;99.90;;;;;;5071864;28;20041;-66
2022/07/04 02:23:02;;;;;;;7.03;4.03;;;18.10;99.90;;;;;;5064151;28;20102;-67
2022/07/04 02:25:29;;;;;;;9.95;4.50;;;18.10;99.90;;;;;;5072591;28;20542;-66
2022/07/04 02:27:57;;;;;;;7.25;3.88;;;18.00;99.90;;;;;;5072315;28;20051;-66
2022/07/04 02:30:24;;;;;;;7.25;4.50;;;18.00;99.90;;;;;;5071568;28;20040;-66
2022/07/04 02:32:52;;;;;;;12.05;5.22;;;18.00;99.90;;;;;;5064035;28;20045;-66
2022/07/04 02:35:19;;;;;;;6.93;4.47;;;18.00;99.90;;;;;;5072420;28;20040;-66
2022/07/04 02:37:46;;;;;;;6.50;4.65;;;18.00;99.90;;;;;;5072589;22;20477;-66
2022/07/04 02:40:13;;;;;;;5.38;3.88;;;18.00;99.90;;;;;;5050964;28;20049;-66
2022/07/04 02:42:39;;;;;;;9.63;4.32;;;18.00;99.90;;;;;;5052234;28;20049;-67
2022/07/04 02:45:07;;;;;;;6.13;4.53;;;18.00;99.90;;;;;;5051537;28;20055;-68
2022/07/04 02:47:34;;;;;;;5.32;4.18;;;18.00;99.90;;;;;;5046772;28;20045;-67
2022/07/04 02:50:03;;;;;;;6.53;4.38;;;18.00;99.90;;;;;;5051414;28;20069;-68
2022/07/04 02:52:30;;;;;;;8.38;5.18;;;18.00;99.90;;;;;;5052174;28;20045;-67
2022/07/04 02:54:57;;;;;;;10.15;5.65;;;18.00;99.90;;;;;;5034601;28;20054;-67
2022/07/04 02:57:24;;;;;;;12.45;5.72;;;17.90;99.90;;;;;;5043777;28;20386;-67
2022/07/04 02:59:51;;;;;;;8.50;5.75;;;17.80;99.90;;;;;;5051785;28;20068;-67
2022/07/04 03:02:18;;;;;;;8.32;6.20;;;17.70;99.90;;;;;;5051916;28;20045;-67
2022/07/04 03:04:45;;;;;;;12.50;7.03;;;17.60;99.90;;;;;;5043395;28;20049;-67
2022/07/04 03:07:12;;;;;;;;;;;17.60;99.90;;;;;;5045090;28;20041;-67
2022/07/04 03:09:39;;;;;;;8.25;5.63;;;17.50;99.90;;;;;;5051759;28;19924;-68
2022/07/04 03:12:06;;;;;;;9.00;6.75;;;17.50;99.90;;;;;;5051306;28;20050;-68
2022/07/04 03:14:33;;;;;;;;;;;17.50;99.90;;;;;;5039003;28;20052;-67
2022/07/04 03:17:00;;;;;;;5.03;4.05;;;17.60;99.90;;;;;;5051196;28;19983;-69
2022/07/04 03:19:27;;;;;;;8.00;4.78;;;17.90;99.90;;;;;;5017215;28;20521;-69
2022/07/04 03:21:54;;;;;;;7.03;4.50;;;17.90;99.90;;;;;;5033198;28;20390;-68
2022/07/04 03:24:21;;;;;;;6.78;4.00;;;17.90;99.90;;;;;;5039329;28;20041;-69
2022/07/04 03:26:47;;;;;;;5.22;4.60;;;17.90;99.90;;;;;;5049104;28;20041;-68
2022/07/04 03:29:14;;;;;;;7.50;4.50;;;17.90;99.90;;;;;;5051626;28;20095;-68
2022/07/04 03:31:41;;;;;;;8.73;4.88;;;17.90;99.90;;;;;;5051101;28;20060;-69
2022/07/04 03:34:07;;;;;;;10.68;4.78;;;17.90;99.90;;;;;;5034981;28;20544;-69
2022/07/04 03:36:34;;;;;;;5.93;4.40;;;17.80;99.90;;;;;;5047056;28;20056;-69
2022/07/04 03:39:02;;;;;;;5.15;4.50;;;17.80;99.90;;;;;;5051537;28;20045;-69
2022/07/04 03:41:28;;;;;;;;;;;17.80;99.90;;;;;;5048117;28;20045;-69
2022/07/04 03:43:55;;;;;;;11.82;4.88;;;17.70;99.90;;;;;;5043094;28;20403;-68
2022/07/04 03:46:22;;;;;;;8.02;5.03;;;17.70;99.90;;;;;;5051191;28;20052;-68
2022/07/04 03:48:49;;;;;;;7.25;4.88;;;17.80;99.90;;;;;;5051342;28;20413;-68
2022/07/04 03:51:15;;;;;;;6.65;4.80;;;17.80;99.90;;;;;;5044759;28;20041;-68
2022/07/04 03:53:42;;;;;;;6.03;5.30;;;17.70;99.90;;;;;;5042994;28;20041;-68
2022/07/04 03:56:09;;;;;;;7.88;5.05;;;17.70;99.90;;;;;;5051254;28;20037;-68
2022/07/04 03:58:36;;;;;;;9.90;6.00;;;17.70;99.90;;;;;;5046014;28;20106;-68
2022/07/04 04:01:03;;;;;;;10.10;6.40;;;17.60;99.90;;;;;;5042322;28;20045;-68
2022/07/04 04:06:15;;;;;;;10.15;6.28;;;17.60;99.90;;;;;;5051272;28;20063;-68
2022/07/04 04:08:42;;;;;;;8.70;6.53;;;17.60;99.90;;;;;;5037552;28;20055;-68
2022/07/04 04:11:09;;;;;;;12.13;7.18;;;17.60;99.90;;;;;;5043301;28;20041;-68
2022/07/04 04:13:36;;;;;;;7.15;6.07;;;17.50;99.90;;;;;;5051113;28;20095;-68
2022/07/04 04:16:03;;;;;;;6.85;5.80;;;17.60;99.90;;;;;;5024429;28;20059;-68
2022/07/04 04:18:29;;;;;;;10.55;6.57;;;17.60;99.90;;;;;;5030539;28;20037;-68
2022/07/04 04:20:56;;;;;;;11.50;6.07;;;17.60;99.90;;;;;;5034686;28;20038;-68
2022/07/04 04:23:23;;;;;;;8.07;5.80;;;17.70;99.90;;;;;;5012919;28;20041;-68
2022/07/04 04:25:49;;;;;;;7.13;4.95;;;17.70;99.90;;;;;;5031803;28;20045;-68
2022/07/04 04:28:21;;;;;;;8.73;5.20;;;17.80;99.90;;;;;;5030277;28;20034;-68
2022/07/04 04:30:50;;;;;;;8.40;5.30;;;17.80;99.90;;;;;;5030614;28;20049;-68
2022/07/04 04:33:17;;;;;;;10.35;5.55;;;17.90;99.90;;;;;;5034298;28;20490;-68
2022/07/04 04:35:43;;;;;;;7.28;5.70;;;18.00;99.90;;;;;;5035950;28;20498;-68
2022/07/04 04:38:10;;;;;;;9.13;5.63;;;18.10;99.90;;;;;;5037606;28;20045;-68
2022/07/04 04:40:37;;;;;;;9.27;5.03;;;18.10;99.90;;;;;;5033810;28;20056;-68
2022/07/04 04:43:04;;;;;;;9.30;5.57;;;18.00;99.90;;;;;;5034437;28;20049;-68
2022/07/04 04:45:30;;;;;;;10.02;5.78;;;18.10;99.90;;;;;;5036776;28;20053;-67
2022/07/04 04:47:57;;;;;;;6.93;5.00;;;18.20;99.90;;;;;;5045920;28;20063;-69
2022/07/04 04:50:24;;;;;;;8.30;5.03;;;18.30;99.90;;;;;;5054128;28;20055;-68
2022/07/04 04:52:51;;;;;;;8.35;4.90;;;18.40;99.90;;;;;;5054359;28;20409;-69
2022/07/04 04:55:17;;;;;;;7.18;4.82;;;18.40;99.90;;;;;;5041616;28;20045;-68
2022/07/04 04:57:44;;;;;;;8.57;4.25;;;18.50;99.90;;;;;;5045400;28;20044;-68
2022/07/04 05:00:11;;;;;;;4.70;4.03;;;18.50;99.90;;;;;;5029763;28;20045;-68
2022/07/04 05:02:38;;;;;;;6.55;4.35;;;18.50;99.90;;;;;;5025985;28;20711;-69
2022/07/04 05:05:06;;;;;;;5.90;4.63;;;18.60;99.90;;;;;;5044876;28;20075;-69
2022/07/04 05:07:33;;;;;;;6.07;4.00;;;18.70;99.90;;;;;;5033192;28;20463;-68
2022/07/04 05:10:01;;;;;;;6.85;4.63;;;18.80;99.90;;;;;;5031239;28;20045;-68
2022/07/04 05:12:28;;;;;;;;;;;18.80;99.90;;;;;;5041399;28;20036;-68
2022/07/04 05:14:55;;;;;;;5.30;4.22;;;19.00;99.90;;;;;;5053759;28;19928;-68
2022/07/04 05:17:21;;;;;;;9.25;4.20;;;19.00;99.90;;;;;;5031100;28;20498;-68
2022/07/04 05:19:48;;;;;;;5.93;3.95;;;19.00;99.90;;;;;;5035395;28;20048;-69
2022/07/04 05:22:15;;;;;;;7.22;4.05;;;19.00;99.90;;;;;;5033292;28;20042;-68
2022/07/04 05:24:43;;;;;;;6.20;4.03;;;19.00;99.90;;;;;;5033408;28;20045;-69
2022/07/04 05:27:10;;;;;;;9.30;4.40;;;19.00;99.90;;;;;;5016047;28;20050;-69
2022/07/04 05:29:37;;;;;;;5.78;4.20;;;19.00;99.90;;;;;;5049813;28;20041;-69
2022/07/04 05:32:04;;;;;;;;;;;18.90;99.90;;;;;;5051144;28;20056;-68
2022/07/04 05:34:31;;;;;;;6.70;4.40;;;19.10;99.90;;;;;;5033367;28;19971;-69
2022/07/04 05:36:58;;;;;;;6.05;4.47;;;19.30;99.90;;;;;;5038504;28;20049;-68
2022/07/04 05:39:25;;;;;;;5.93;4.25;;;19.50;99.90;;;;;;5037392;28;20030;-69
2022/07/04 05:41:51;;;;;;;11.13;5.63;;;19.60;99.90;;;;;;5032116;28;20057;-69
2022/07/04 05:44:18;;;;;;;7.20;4.53;;;19.60;99.90;;;;;;5031663;28;20068;-68
2022/07/04 05:46:45;;;;;;;7.25;4.25;;;19.70;99.90;;;;;;5040693;28;20041;-69
2022/07/04 05:49:12;;;;;;;7.32;4.10;;;19.80;99.90;;;;;;5033329;28;20045;-69
2022/07/04 05:51:38;;;;;;;6.72;4.70;;;20.00;99.90;;;;;;5032777;28;20095;-68
2022/07/04 05:54:05;;;;;;;6.60;4.10;;;20.10;99.90;;;;;;5034211;28;20041;-68
2022/07/04 05:56:32;;;;;;;5.55;4.32;;;20.20;99.90;;;;;;5044643;28;20041;-68
2022/07/04 05:58:59;;;;;;;7.30;4.38;;;20.20;99.90;;;;;;5052830;28;20049;-68
2022/07/04 06:01:26;;;;;;;5.68;4.20;;;20.20;99.90;;;;;;5052457;28;20517;-68
2022/07/04 06:03:52;;;;;;;6.97;4.03;;;20.20;99.90;;;;;;5042576;28;20094;-68
2022/07/04 06:06:19;;;;;;;4.38;3.95;;;20.20;99.90;;;;;;5033018;28;20046;-69
2022/07/04 06:08:46;;;;;;;5.03;4.35;;;20.20;99.90;;;;;;5015118;28;20387;-68
2022/07/04 06:11:14;;;;;;;7.07;3.92;;;20.20;99.90;;;;;;5037131;28;20045;-67
2022/07/04 06:13:41;;;;;;;7.95;4.22;;;20.10;99.90;;;;;;5049562;28;20041;-67
2022/07/04 06:16:08;;;;;;;4.65;4.15;;;20.10;99.90;;;;;;5052611;28;20052;-67
2022/07/04 06:18:35;;;;;;;6.40;4.30;;;20.10;99.90;;;;;;5052532;28;20424;-67
2022/07/04 06:21:02;;;;;;;5.47;4.13;;;20.10;99.90;;;;;;5038128;28;20049;-67
2022/07/04 06:23:29;;;;;;;8.43;4.40;;;20.10;99.90;;;;;;5047748;28;20068;-67
2022/07/04 06:25:55;;;;;;;7.35;4.35;;;20.10;99.90;;;;;;5052364;28;20049;-67
2022/07/04 06:28:22;;;;;;;4.97;3.88;;;20.10;99.90;;;;;;5047220;28;20032;-67
2022/07/04 06:31:11;;;;;;;6.20;4.78;;;20.10;99.90;;;;;;5027695;28;20453;-67
2022/07/04 06:36:23;;;;;;;4.70;3.50;;;20.60;99.90;;;;;;5029803;28;20056;-67
2022/07/04 06:38:50;;;;;;;5.30;3.95;;;20.80;99.90;;;;;;5037275;28;20135;-67
2022/07/04 06:41:17;;;;;;;8.35;3.55;;;21.10;99.90;;;;;;5031514;28;20080;-67
2022/07/04 06:43:43;;;;;;;5.45;3.88;;;21.20;99.90;;;;;;5028422;28;20053;-67
2022/07/04 06:46:10;;;;;;;4.53;3.63;;;21.40;99.90;;;;;;5043465;28;20081;-68
2022/07/04 06:48:37;;;;;;;5.05;3.55;;;21.40;99.90;;;;;;5052015;28;20047;-67
2022/07/04 06:51:04;;;;;;;5.47;3.80;;;21.30;99.90;;;;;;5051461;28;20409;-67
2022/07/04 06:53:31;;;;;;;4.95;3.22;;;21.30;99.90;;;;;;5043592;28;20096;-67
2022/07/04 06:55:57;;;;;;;5.10;3.38;;;21.20;99.90;;;;;;5041693;28;20057;-67
2022/07/04 06:58:24;;;;;;;4.47;3.25;;;21.20;99.90;;;;;;5051873;28;20048;-67
2022/07/04 07:00:51;;;;;;;4.22;3.25;;;21.20;99.90;;;;;;5051410;28;20052;-67
2022/07/04 07:03:18;;;;;;;3.85;3.38;;;21.30;99.90;;;;;;5034894;28;20044;-67
2022/07/04 07:05:45;;;;;;;5.32;3.22;;;21.50;99.90;;;;;;5049184;28;20529;-68
2022/07/04 07:08:28;;;;;;;7.10;3.00;;;21.50;99.90;;;;;;5051736;28;20409;-67
2022/07/04 07:10:56;;;;;;;5.60;2.88;;;21.50;99.90;;;;;;5036559;28;20046;-67
2022/07/04 07:13:23;;;;;;;4.18;3.47;;;21.50;99.90;;;;;;5043015;28;20037;-67
2022/07/04 07:15:49;;;;;;;5.45;3.35;;;21.50;99.90;;;;;;5051594;28;20045;-67
2022/07/04 07:18:16;;;;;;;5.63;3.17;;;21.50;99.90;;;;;;5049284;28;20063;-68
2022/07/04 07:20:43;;;;;;;4.18;3.00;;;21.60;99.90;;;;;;5037090;28;20038;-68
2022/07/04 07:23:10;;;;;;;2.75;2.55;;;21.50;99.90;;;;;;5051542;28;20045;-67
2022/07/04 07:25:37;;;;;;;6.35;3.17;;;21.50;99.90;;;;;;5051391;28;20087;-68
2022/07/04 07:28:04;;;;;;;3.25;2.95;;;21.40;99.90;;;;;;5045760;28;20045;-67
2022/07/04 07:30:31;;;;;;;9.73;3.03;;;21.40;99.90;;;;;;5034529;28;20061;-68
2022/07/04 07:32:58;;;;;;;4.50;2.95;;;21.50;99.90;;;;;;5050663;28;20059;-68
2022/07/04 07:35:24;;;;;;;4.60;2.90;;;21.80;99.90;;;;;;5048928;28;20045;-68
2022/07/04 07:37:51;;;;;;;4.18;3.13;;;21.90;99.90;;;;;;5039465;28;20068;-67
2022/07/04 07:40:18;;;;;;;6.03;3.22;;;22.10;99.90;;;;;;5050762;28;20041;-68
2022/07/04 07:42:45;;;;;;;5.07;3.10;;;21.80;99.90;;;;;;5051273;28;20548;-67
2022/07/04 07:45:11;;;;;;;4.63;2.85;;;21.70;99.90;;;;;;5038144;28;20041;-68
2022/07/04 07:47:38;;;;;;;4.50;2.92;;;21.70;99.90;;;;;;5042982;28;20385;-68
2022/07/04 07:50:05;;;;;;;6.35;3.35;;;21.80;99.90;;;;;;5050743;28;20110;-67
2022/07/04 07:52:32;;;;;;;3.28;2.97;;;21.80;99.90;;;;;;5051236;28;20040;-68
2022/07/04 07:54:59;;;;;;;5.20;3.30;;;21.80;99.90;;;;;;5040451;28;20042;-68
2022/07/04 07:57:28;;;;;;;4.40;3.63;;;21.70;99.90;;;;;;5028305;28;20041;-68
2022/07/04 07:59:55;;;;;;;5.43;2.88;;;21.60;99.90;;;;;;5050800;28;20049;-67
2022/07/04 08:04:34;;;;;;;3.22;2.90;;;21.60;99.90;;;;;;5051090;28;20071;-68
2022/07/04 08:05:11;;;;;;;4.35;2.40;;;21.60;99.90;;;;;;5039654;28;20065;-67
2022/07/04 08:07:38;;;;;;;4.82;3.42;;;21.60;99.90;;;;;;5051361;28;20049;-68
2022/07/04 08:10:06;;;;;;;6.70;3.60;;;21.70;99.90;;;;;;5054729;28;20486;-68
2022/07/04 08:12:32;;;;;;;6.60;3.17;;;21.80;99.90;;;;;;5044245;28;20048;-68
2022/07/04 08:14:59;;;;;;;3.60;2.95;;;21.90;99.90;;;;;;5046558;28;20437;-68
2022/07/04 08:17:32;;;;;;;5.43;3.42;;;22.00;99.90;;;;;;5036989;28;20061;-68
2022/07/04 08:19:59;;;;;;;5.20;3.35;;;22.10;99.90;;;;;;5054156;28;20045;-68
2022/07/04 08:22:26;;;;;;;4.07;2.90;;;22.30;99.90;;;;;;5043062;28;20048;-68
2022/07/04 08:24:53;;;;;;;4.80;3.20;;;22.50;99.90;;;;;;5046360;28;20493;-68
2022/07/04 08:27:22;;;;;;;5.03;2.90;;;22.50;99.90;;;;;;5054561;28;20053;-68
2022/07/04 08:29:55;;;;;;;6.55;2.85;;;22.60;99.90;;;;;;5054507;28;20041;-68
2022/07/04 08:32:22;;;;;;;5.30;3.05;;;22.60;99.90;;;;;;5045486;28;20037;-68
2022/07/04 08:34:49;;;;;;;6.32;3.22;;;22.80;99.90;;;;;;5045987;28;20037;-68
2022/07/04 08:37:16;;;;;;;9.13;2.60;;;22.90;99.90;;;;;;5068087;22;20052;-66
2022/07/04 08:39:43;;;;;;;6.97;3.28;;;22.90;99.90;;;;;;5035581;28;20324;-66
2022/07/04 08:42:15;;;;;;;;;;;23.00;99.90;;;;;;5046792;28;20040;-66
2022/07/04 08:44:47;;;;;;;3.97;2.90;;;23.40;99.90;;;;;;5054599;28;19927;-66
2022/07/04 08:47:19;;;;;;;4.40;2.97;;;23.60;99.90;;;;;;5041175;28;20045;-66
2022/07/04 08:50:10;;;;;;;4.38;2.60;;;23.80;99.90;;;;;;5017236;28;20128;-66
2022/07/04 08:52:52;;;;;;;2.85;2.55;;;24.20;99.90;;;;;;5019058;28;20133;-66
2022/07/04 09:00:53;;;;;;;4.65;2.70;;;24.30;99.90;;;;;;5014073;28;20042;-66
2022/07/04 09:03:20;;;;;;;8.88;2.97;;;24.00;99.90;;;;;;5016278;28;20056;-66
2022/07/04 09:05:47;;;;;;;7.28;3.13;;;23.70;99.90;;;;;;5025594;28;20073;-66
2022/07/04 09:08:14;;;;;;;5.57;3.00;;;23.50;99.90;;;;;;5034058;28;20119;-66
2022/07/04 09:10:41;;;;;;;12.30;3.47;;;23.40;99.90;;;;;;5033449;28;20061;-66
2022/07/04 09:13:10;;;;;;;4.07;3.58;;;23.10;99.90;;;;;;5028215;28;20050;-66
2022/07/04 09:15:40;;;;;;;3.88;2.88;;;23.00;99.90;;;;;;5030537;28;20446;-66
2022/07/04 09:18:23;;;;;;;8.50;3.20;;;23.00;99.90;;;;;;5015476;28;20045;-66
2022/07/04 09:20:50;;;;;;;4.15;3.40;;;22.90;99.90;;;;;;5030215;28;20049;-66
2022/07/04 09:23:25;;;;;;;3.65;2.85;;;22.80;99.90;;;;;;5027502;28;20041;-66
2022/07/04 09:26:08;;;;;;;3.00;2.70;;;22.70;99.90;;;;;;5033406;28;20099;-66
2022/07/04 09:28:36;;;;;;;5.22;3.25;;;22.90;99.90;;;;;;5032033;28;20049;-67
2022/07/04 09:31:16;;;;;;;5.65;2.92;;;22.90;99.90;;;;;;5024871;28;20045;-66
2022/07/04 09:33:49;;;;;;;4.03;3.10;;;22.90;99.90;;;;;;5033452;28;20053;-66
2022/07/04 09:36:19;;;;;;;4.13;3.42;;;22.80;99.90;;;;;;5034271;28;20041;-67
2022/07/04 09:39:03;;;;;;;6.38;3.03;;;22.90;99.90;;;;;;5023280;28;20042;-67
2022/07/04 09:41:34;;;;;;;4.10;3.28;;;22.90;99.90;;;;;;5033073;28;20222;-66
2022/07/04 09:44:05;;;;;;;6.13;2.95;;;23.00;99.90;;;;;;5015889;28;20050;-66
2022/07/04 09:46:33;;;;;;;8.32;3.33;;;22.90;99.90;;;;;;5024288;28;20376;-66
2022/07/04 09:48:59;;;;;;;5.22;3.10;;;22.90;99.90;;;;;;5032789;28;20050;-66
2022/07/04 09:51:48;;;;;;;4.15;3.30;;;22.60;99.90;;;;;;5032864;28;20046;-66
2022/07/04 09:54:19;;;;;;;;;;;22.40;99.90;;;;;;5027054;28;20045;-66
2022/07/04 09:56:51;;;;;;;5.68;3.63;;;22.30;99.90;;;;;;5030570;28;19921;-66
2022/07/04 09:59:19;;;;;;;5.80;3.50;;;22.30;99.90;;;;;;5033105;28;20509;-66
2022/07/04 10:01:46;;;;;;;7.20;3.88;;;22.30;99.90;;;;;;5030142;28;20042;-66
2022/07/04 10:04:13;;;;;;;4.15;3.47;;;22.30;99.90;;;;;;5025951;28;20053;-66
2022/07/04 10:06:42;;;;;;;5.25;3.10;;;22.30;99.90;;;;;;5032993;28;20236;-66
2022/07/04 10:09:11;;;;;;;4.95;3.60;;;22.20;99.90;;;;;;5027544;28;20054;-67
2022/07/04 10:11:39;;;;;;;6.40;3.60;;;22.10;99.90;;;;;;5020687;28;20080;-66
2022/07/04 10:14:09;;;;;;;7.50;3.97;;;22.00;99.90;;;;;;4993503;28;20053;-66
2022/07/04 10:16:37;;;;;;;5.82;3.42;;;21.90;99.90;;;;;;4993232;28;20054;-66
2022/07/04 10:19:06;;;;;;;4.13;3.42;;;21.90;99.90;;;;;;5011017;28;20042;-66
2022/07/04 10:21:33;;;;;;;7.55;3.70;;;22.00;99.90;;;;;;5024051;28;20559;-66
2022/07/04 10:24:02;;;;;;;6.38;3.67;;;22.00;99.90;;;;;;5020101;28;20037;-66
2022/07/04 10:26:30;;;;;;;7.50;4.60;;;22.20;99.90;;;;;;5012243;28;20048;-67
2022/07/04 10:28:58;;;;;;;5.32;4.82;;;22.10;99.90;;;;;;5003176;28;20067;-67
2022/07/04 10:31:28;;;;;;;4.63;4.13;;;22.10;99.90;;;;;;5011984;28;20401;-67
2022/07/04 10:33:57;;;;;;;4.82;3.67;;;22.10;99.90;;;;;;5004287;28;20512;-67
2022/07/04 10:36:29;;;;;;;5.38;3.50;;;22.20;99.90;;;;;;5012185;28;20042;-67
2022/07/04 10:39:01;;;;;;;5.05;4.20;;;22.30;99.90;;;;;;5008712;28;20038;-67
2022/07/04 10:41:29;;;;;;;5.05;3.88;;;22.50;99.90;;;;;;5010247;28;20038;-67
2022/07/04 10:44:09;;;;;;;5.43;4.03;;;22.50;99.90;;;;;;5008899;28;20046;-66
2022/07/04 10:46:42;;;;;;;4.90;4.10;;;22.70;99.90;;;;;;4995156;28;20443;-67
2022/07/04 10:49:15;;;;;;;5.55;4.53;;;22.70;99.90;;;;;;5000789;28;20046;-66
2022/07/04 10:51:43;;;;;;;5.88;4.72;;;22.80;99.90;;;;;;5012493;28;20037;-66
2022/07/04 10:54:13;;;;;;;5.65;4.35;;;22.90;99.90;;;;;;5024635;28;20051;-66
2022/07/04 10:56:42;;;;;;;6.50;5.20;;;23.00;99.90;;;;;;5032411;28;20056;-66
2022/07/04 10:59:14;;;;;;;9.00;4.80;;;23.00;99.90;;;;;;5030614;28;20064;-67
2022/07/04 11:01:49;;;;;;;5.45;4.78;;;23.20;99.90;;;;;;5018436;28;20407;-66
2022/07/04 11:04:46;;;;;;;6.25;4.97;;;23.10;99.90;;;;;;5031776;28;20084;-66
2022/07/04 11:07:16;;;;;;;6.27;4.83;;;23.30;99.90;;;;;;5031890;28;20060;-67
2022/07/04 11:09:44;;;;;;;8.35;4.28;;;23.30;99.90;;;;;;5004566;28;20426;-66
2022/07/04 11:12:14;;;;;;;5.75;4.00;;;23.40;99.90;;;;;;5023180;28;20038;-66
2022/07/04 11:14:45;;;;;;;9.40;5.13;;;23.70;99.90;;;;;;5031744;28;20057;-66
2022/07/04 11:17:19;;;;;;;7.72;4.90;;;23.80;99.90;;;;;;5010011;28;20053;-66
2022/07/04 11:19:46;;;;;;;6.80;4.63;;;23.90;99.90;;;;;;5020711;28;20045;-66
2022/07/04 11:22:23;;;;;;;7.03;4.82;;;23.90;99.90;;;;;;5031245;28;20038;-66
2022/07/04 11:24:50;;;;;;;6.45;4.75;;;23.80;99.90;;;;;;5012497;28;20054;-66
2022/07/04 11:27:16;;;;;;;6.00;4.78;;;23.80;99.90;;;;;;5022934;28;20052;-66
2022/07/04 11:29:54;;;;;;;8.27;4.65;;;23.70;99.90;;;;;;5031416;28;20048;-66
2022/07/04 11:32:29;;;;;;;6.82;4.47;;;23.50;99.90;;;;;;5026128;28;20052;-66
2022/07/04 11:34:56;;;;;;;5.93;4.72;;;23.70;99.90;;;;;;5001339;28;20072;-66
2022/07/04 11:37:23;;;;;;;4.88;3.85;;;23.90;99.90;;;;;;5005299;28;20100;-66
2022/07/04 11:39:50;;;;;;;;;;;24.20;99.90;;;;;;5001215;28;20050;-66
2022/07/04 11:45:07;;;;;;;4.20;3.10;;;24.40;99.90;;;;;;5000372;28;20470;-66
2022/07/04 11:47:41;;;;;;;3.30;3.00;;;24.60;99.90;;;;;;5001112;28;20073;-66
2022/07/04 11:50:11;;;;;;;3.15;2.78;;;24.60;99.90;;;;;;5005074;28;20054;-66
2022/07/04 11:52:51;;;;;;;5.85;3.10;;;24.80;99.90;;;;;;5005649;28;20069;-66
2022/07/04 11:55:37;;;;;;;4.18;2.38;;;24.80;99.90;;;;;;5001415;28;20050;-66
2022/07/04 11:58:04;;;;;;;3.47;2.75;;;24.80;99.90;;;;;;5000246;28;20431;-66
2022/07/04 12:00:31;;;;;;;5.35;2.65;;;25.00;99.90;;;;;;5014148;28;20517;-66
2022/07/04 12:03:00;;;;;;;4.00;2.83;;;24.80;99.90;;;;;;5030355;28;20056;-65
2022/07/04 12:05:29;;;;;;;2.85;2.35;;;24.60;99.90;;;;;;5031123;28;20042;-66
2022/07/04 12:07:56;;;;;;;4.13;2.50;;;24.50;99.90;;;;;;5029627;28;20037;-66
2022/07/04 12:10:43;;;;;;;3.85;2.78;;;24.30;99.90;;;;;;5004672;28;20443;-66
2022/07/04 12:13:16;;;;;;;3.97;2.50;;;24.20;99.90;;;;;;5031009;28;20506;-66
2022/07/04 12:15:48;;;;;;;4.38;2.90;;;24.10;99.90;;;;;;5030205;28;20055;-66
2022/07/04 12:18:20;;;;;;;2.92;2.50;;;24.30;99.90;;;;;;5011753;28;20454;-66
2022/07/04 12:20:49;;;;;;;3.67;2.33;;;24.50;99.90;;;;;;5028286;28;20057;-66
2022/07/04 12:23:18;;;;;;;8.45;3.28;;;24.60;99.90;;;;;;5031058;28;20037;-66
2022/07/04 12:25:49;;;;;;;2.85;2.65;;;24.70;99.90;;;;;;5028032;28;20088;-66
2022/07/04 12:28:17;;;;;;;3.08;2.78;;;24.40;99.90;;;;;;5024459;28;20055;-66
2022/07/04 12:30:55;;;;;;;4.93;2.88;;;24.20;99.90;;;;;;5030644;28;20124;-66
2022/07/04 12:33:24;;;;;;;4.13;2.42;;;24.00;99.90;;;;;;5030807;28;20050;-66
2022/07/04 12:36:12;;;;;;;3.05;2.50;;;24.10;99.90;;;;;;5027687;28;20048;-66
2022/07/04 12:38:41;;;;;;;3.58;2.55;;;24.10;99.90;;;;;;5027291;28;20326;-66
2022/07/04 12:41:13;;;;;;;2.78;2.33;;;24.10;99.90;;;;;;5030461;28;20041;-66
2022/07/04 12:43:42;;;;;;;3.53;2.55;;;24.00;99.90;;;;;;5001689;28;20054;-66
2022/07/04 12:46:14;;;;;;;3.75;2.63;;;23.90;99.90;;;;;;5022537;28;20041;-66
2022/07/04 12:48:42;;;;;;;5.80;3.05;;;24.00;99.90;;;;;;5030350;28;20046;-66
2022/07/04 12:51:13;;;;;;;7.22;2.88;;;23.90;99.90;;;;;;5028875;28;20323;-67
2022/07/04 12:53:42;;;;;;;2.95;2.63;;;23.80;99.90;;;;;;5025807;28;20038;-66
2022/07/04 12:56:10;;;;;;;2.55;2.35;;;23.90;99.90;;;;;;5034327;28;20068;-66
2022/07/04 12:58:37;;;;;;;3.85;2.47;;;23.60;99.90;;;;;;5034032;28;20409;-66
2022/07/04 13:01:04;;;;;;;;;;;23.90;99.90;;;;;;5032745;28;20095;-66
2022/07/04 13:03:30;;;;;;;2.70;2.50;;;23.90;99.90;;;;;;5025912;28;19932;-66
2022/07/04 13:05:57;;;;;;;5.00;2.70;;;23.90;99.90;;;;;;5034155;28;20498;-66
2022/07/04 13:08:24;;;;;;;4.75;2.50;;;23.80;99.90;;;;;;5033849;28;20048;-66
2022/07/04 13:12:23;;;;;;;5.15;3.08;;;23.90;99.90;;;;;;5030259;28;20046;-66
2022/07/04 13:13:41;;;;;;;2.50;2.30;;;23.80;99.90;;;;;;5030539;28;20049;-66
2022/07/04 13:16:07;;;;;;;3.47;2.75;;;23.90;99.90;;;;;;5033915;28;20045;-66